createdAt,value
2022-08-31T00:10:57.333Z,18.30
2022-08-31T00:13:27.907Z,18.30
2022-08-31T00:15:58.672Z,18.30
2022-08-31T00:18:26.997Z,18.30
2022-08-31T00:20:58.937Z,18.30
2022-08-31T00:23:28.497Z,18.30
2022-08-31T00:25:57.888Z,18.30
2022-08-31T00:28:26.751Z,18.30
2022-08-31T00:30:56.804Z,18.30
2022-08-31T00:33:25.359Z,18.30
2022-08-31T00:35:58.301Z,18.30
2022-08-31T00:38:26.689Z,18.30
2022-08-31T00:40:55.036Z,18.30
2022-08-31T00:43:46.114Z,18.30
2022-08-31T00:46:45.663Z,18.30
2022-08-31T00:49:17.537Z,18.20
2022-08-31T00:52:18.283Z,18.20
2022-08-31T00:54:48.774Z,18.10
2022-08-31T00:57:50.730Z,18.10
2022-08-31T01:00:24.236Z,18.20
2022-08-31T01:02:53.605Z,18.00
2022-08-31T01:05:31.925Z,18.00
2022-08-31T01:08:01.367Z,17.90
2022-08-31T01:10:39.412Z,18.00
2022-08-31T01:13:14.369Z,17.90
2022-08-31T01:15:51.344Z,18.00
2022-08-31T01:18:26.871Z,17.90
2022-08-31T01:20:54.982Z,17.90
2022-08-31T01:23:40.247Z,18.00
2022-08-31T01:26:10.780Z,17.90
2022-08-31T01:28:39.272Z,17.90
2022-08-31T01:37:01.599Z,17.90
2022-08-31T01:39:30.188Z,17.90
2022-08-31T01:42:00.994Z,17.80
2022-08-31T01:58:05.182Z,17.50
2022-08-31T02:22:05.404Z,17.30
2022-08-31T02:29:57.029Z,16.70
2022-08-31T02:32:26.210Z,16.70
2022-08-31T02:34:58.753Z,16.60
2022-08-31T02:37:28.086Z,16.50
2022-08-31T02:39:57.698Z,16.60
2022-08-31T02:47:36.027Z,16.50
2022-08-31T02:50:24.604Z,16.50
2022-08-31T02:52:55.744Z,16.50
2022-08-31T02:55:28.920Z,16.30
2022-08-31T02:58:29.380Z,16.20
2022-08-31T03:01:30.856Z,16.10
2022-08-31T03:04:03.476Z,16.10
2022-08-31T03:06:32.340Z,16.20
2022-08-31T03:09:03.742Z,16.30
2022-08-31T03:11:36.528Z,16.20
2022-08-31T03:14:57.244Z,16.20
2022-08-31T03:17:25.691Z,16.10
2022-08-31T03:25:18.280Z,16.20
2022-08-31T03:27:47.073Z,16.30
2022-08-31T03:30:49.344Z,16.30
2022-08-31T03:33:18.591Z,16.30
2022-08-31T03:35:47.160Z,16.30
2022-08-31T03:38:17.148Z,16.40
2022-08-31T03:40:52.496Z,16.40
2022-08-31T03:43:28.944Z,16.40
2022-08-31T03:45:59.809Z,16.40
2022-08-31T03:48:28.470Z,16.50
2022-08-31T03:50:57.071Z,16.40
2022-08-31T03:58:22.634Z,16.40
2022-08-31T04:00:55.098Z,16.30
2022-08-31T04:03:45.469Z,16.30
2022-08-31T04:06:34.488Z,16.10
2022-08-31T04:09:21.586Z,16.00
2022-08-31T04:12:10.519Z,16.00
2022-08-31T04:15:08.754Z,16.10
2022-08-31T04:18:03.222Z,16.20
2022-08-31T04:20:59.848Z,16.30
2022-08-31T04:23:32.494Z,16.30
2022-08-31T04:26:04.597Z,16.40
2022-08-31T04:28:35.033Z,16.40
2022-08-31T04:31:18.551Z,16.40
2022-08-31T04:33:56.935Z,16.50
2022-08-31T04:36:32.449Z,16.50
2022-08-31T04:39:17.745Z,16.50
2022-08-31T04:41:50.338Z,16.50
2022-08-31T04:44:26.992Z,16.50
2022-08-31T04:56:21.529Z,16.50
2022-08-31T04:58:57.358Z,16.60
2022-08-31T05:01:35.903Z,16.50
2022-08-31T05:04:39.228Z,16.50
2022-08-31T05:07:07.727Z,16.40
2022-08-31T05:09:38.498Z,16.40
2022-08-31T05:12:08.305Z,16.40
2022-08-31T05:14:38.344Z,16.30
2022-08-31T05:17:23.365Z,16.30
2022-08-31T05:19:53.358Z,16.20
2022-08-31T05:23:28.590Z,16.20
2022-08-31T05:26:00.879Z,16.40
2022-08-31T05:34:02.306Z,16.10
2022-08-31T05:36:39.358Z,16.30
2022-08-31T05:39:13.184Z,16.40
2022-08-31T05:41:49.856Z,16.30
2022-08-31T05:44:32.592Z,16.40
2022-08-31T05:56:46.392Z,16.30
2022-08-31T05:59:21.906Z,16.10
2022-08-31T06:01:52.475Z,16.10
2022-08-31T06:04:35.393Z,16.20
2022-08-31T06:07:46.381Z,16.20
2022-08-31T06:10:50.549Z,16.00
2022-08-31T06:18:51.216Z,16.40
2022-08-31T06:21:25.574Z,16.40
2022-08-31T06:23:59.989Z,16.40
2022-08-31T06:26:38.033Z,16.70
2022-08-31T06:29:15.007Z,16.80
2022-08-31T06:31:49.146Z,16.80
2022-08-31T06:43:06.089Z,18.00
2022-08-31T06:50:57.629Z,18.10
2022-08-31T06:53:30.197Z,18.30
2022-08-31T06:56:59.870Z,18.30
2022-08-31T07:00:55.945Z,18.40
2022-08-31T07:03:37.738Z,18.50
2022-08-31T07:06:14.329Z,18.60
2022-08-31T07:09:49.169Z,18.70
2022-08-31T07:12:18.769Z,18.90
2022-08-31T07:14:57.586Z,19.00
2022-08-31T07:19:15.882Z,19.10
2022-08-31T07:21:53.534Z,19.20
2022-08-31T07:30:10.157Z,19.40
2022-08-31T07:32:47.812Z,19.20
2022-08-31T07:35:18.952Z,19.10
2022-08-31T07:38:51.482Z,19.30
2022-08-31T07:41:53.287Z,19.40
2022-08-31T07:44:26.013Z,19.40
2022-08-31T07:46:57.588Z,19.50
2022-08-31T07:49:29.301Z,19.50
2022-08-31T07:52:11.993Z,19.70
2022-08-31T07:55:10.244Z,19.90
2022-08-31T07:58:04.160Z,20.20
2022-08-31T08:00:35.711Z,20.30
2022-08-31T08:03:08.133Z,20.90
2022-08-31T08:06:03.003Z,20.80
2022-08-31T08:09:24.871Z,20.30
2022-08-31T08:16:54.672Z,20.50
2022-08-31T08:19:54.058Z,21.70
2022-08-31T08:22:56.913Z,22.00
2022-08-31T08:30:53.141Z,23.50
2022-08-31T08:33:26.265Z,23.30
2022-08-31T08:41:23.600Z,23.90
2022-08-31T08:44:06.086Z,21.60
2022-08-31T08:47:37.691Z,22.60
2022-08-31T08:50:11.364Z,22.60
2022-08-31T08:52:51.443Z,22.90
2022-08-31T08:55:30.892Z,22.80
2022-08-31T08:58:00.691Z,22.20
2022-08-31T09:06:06.247Z,23.90
2022-08-31T09:09:04.515Z,23.60
2022-08-31T09:11:55.643Z,22.80
2022-08-31T09:20:10.663Z,24.70
2022-08-31T09:23:21.627Z,24.80
2022-08-31T09:26:27.989Z,24.80
2022-08-31T09:29:04.541Z,24.20
2022-08-31T09:31:37.943Z,24.10
2022-08-31T09:44:59.210Z,23.40
2022-08-31T09:48:32.933Z,23.30
2022-08-31T09:51:03.028Z,24.30
2022-08-31T09:54:00.502Z,25.50
2022-08-31T09:56:30.051Z,25.30
2022-08-31T09:59:03.124Z,26.30
2022-08-31T10:01:45.625Z,26.80
2022-08-31T10:04:28.279Z,25.30
2022-08-31T10:07:25.136Z,26.90
2022-08-31T10:10:03.236Z,26.50
2022-08-31T10:12:55.495Z,25.90
2022-08-31T10:15:43.219Z,26.10
2022-08-31T10:18:51.232Z,26.30
2022-08-31T10:21:30.799Z,24.60
2022-08-31T10:24:21.012Z,25.30
2022-08-31T10:26:57.396Z,25.40
2022-08-31T10:29:49.189Z,25.30
2022-08-31T10:32:32.145Z,25.60
2022-08-31T10:40:50.628Z,25.50
2022-08-31T10:43:32.145Z,23.10
2022-08-31T10:46:05.728Z,23.80
2022-08-31T10:48:37.424Z,23.80
2022-08-31T10:52:45.707Z,23.90
2022-08-31T10:55:39.496Z,24.10
2022-08-31T10:58:45.132Z,24.10
2022-08-31T11:01:29.200Z,24.20
2022-08-31T11:04:42.263Z,24.10
2022-08-31T11:07:49.387Z,24.10
2022-08-31T11:10:26.442Z,24.00
2022-08-31T11:13:06.109Z,24.20
2022-08-31T11:15:45.586Z,24.30
2022-08-31T11:18:36.433Z,24.00
2022-08-31T11:21:35.612Z,24.00
2022-08-31T11:24:56.254Z,24.00
2022-08-31T11:27:37.665Z,23.80
2022-08-31T11:36:07.771Z,23.50
2022-08-31T11:39:16.490Z,23.80
2022-08-31T11:41:48.889Z,23.90
2022-08-31T11:44:34.330Z,23.90
2022-08-31T11:47:09.429Z,23.80
2022-08-31T11:49:54.391Z,24.20
2022-08-31T11:52:53.946Z,24.60
2022-08-31T11:55:47.424Z,24.80
2022-08-31T11:58:26.173Z,25.10
2022-08-31T12:01:00.022Z,25.20
2022-08-31T12:03:53.106Z,25.20
2022-08-31T12:06:49.764Z,24.60
2022-08-31T12:09:59.887Z,24.60
2022-08-31T12:13:07.817Z,25.70
2022-08-31T12:16:40.768Z,25.90
2022-08-31T12:19:56.714Z,26.10
2022-08-31T12:23:30.954Z,26.20
2022-08-31T12:26:41.788Z,26.60
2022-08-31T12:29:46.640Z,26.90
2022-08-31T12:32:20.658Z,26.60
2022-08-31T12:35:01.593Z,27.00
2022-08-31T12:37:35.685Z,27.20
2022-08-31T12:40:16.054Z,27.30
2022-08-31T12:43:02.955Z,26.80
2022-08-31T12:46:18.778Z,26.30
2022-08-31T12:48:59.265Z,26.70
2022-08-31T12:51:33.931Z,26.90
2022-08-31T12:54:17.844Z,26.70
2022-08-31T12:57:08.625Z,25.60
2022-08-31T13:00:45.044Z,26.00
2022-08-31T13:03:32.220Z,26.70
2022-08-31T13:06:14.379Z,26.90
2022-08-31T13:08:47.423Z,27.80
2022-08-31T13:11:40.696Z,28.20
2022-08-31T13:14:24.759Z,28.50
2022-08-31T13:17:12.173Z,28.80
2022-08-31T13:20:01.741Z,28.40
2022-08-31T13:22:45.223Z,28.20
2022-08-31T13:25:38.604Z,28.20
2022-08-31T13:28:16.759Z,27.80
2022-08-31T13:31:03.329Z,28.20
2022-08-31T13:33:35.119Z,28.60
2022-08-31T13:36:40.573Z,27.00
2022-08-31T13:39:14.569Z,28.20
2022-08-31T13:41:56.158Z,27.70
2022-08-31T13:44:28.038Z,27.10
2022-08-31T13:47:03.028Z,26.50
2022-08-31T13:49:40.800Z,26.40
2022-08-31T13:52:21.473Z,25.90
2022-08-31T13:55:05.827Z,26.80
2022-08-31T13:57:36.037Z,26.70
2022-08-31T14:00:32.748Z,26.90
2022-08-31T14:03:33.597Z,26.60
2022-08-31T14:06:23.928Z,25.50
2022-08-31T14:09:24.927Z,25.70
2022-08-31T14:12:04.054Z,26.60
2022-08-31T14:14:43.357Z,27.30
2022-08-31T14:17:15.678Z,28.20
2022-08-31T14:19:45.269Z,28.70
2022-08-31T14:22:30.139Z,28.80
2022-08-31T14:25:00.866Z,29.00
2022-08-31T14:27:39.561Z,28.90
2022-08-31T14:30:09.550Z,28.60
2022-08-31T14:32:37.562Z,28.70
2022-08-31T14:35:11.992Z,28.50
2022-08-31T14:37:50.570Z,28.20
2022-08-31T14:40:19.423Z,27.80
2022-08-31T14:42:52.768Z,27.60
2022-08-31T14:45:20.834Z,27.50
2022-08-31T14:47:52.627Z,27.20
2022-08-31T14:50:28.005Z,27.20
2022-08-31T14:52:57.760Z,27.30
2022-08-31T14:55:30.086Z,27.50
2022-08-31T14:58:30.461Z,27.60
2022-08-31T15:01:02.689Z,27.40
2022-08-31T15:03:34.426Z,27.30
2022-08-31T15:06:04.449Z,27.30
2022-08-31T15:08:38.638Z,27.40
2022-08-31T15:11:10.637Z,27.00
2022-08-31T15:13:40.013Z,25.80
2022-08-31T15:16:12.114Z,26.10
2022-08-31T15:18:43.967Z,25.90
2022-08-31T15:21:13.297Z,26.40
2022-08-31T15:23:41.987Z,26.40
2022-08-31T15:26:12.564Z,26.30
2022-08-31T15:28:42.827Z,25.90
2022-08-31T15:31:21.469Z,25.80
2022-08-31T15:34:00.289Z,25.70
2022-08-31T15:36:29.038Z,25.60
2022-08-31T15:39:04.267Z,25.50
2022-08-31T15:41:37.400Z,25.20
2022-08-31T15:44:10.384Z,25.30
2022-08-31T15:47:30.469Z,25.40
2022-08-31T15:50:00.192Z,25.70
2022-08-31T15:52:31.525Z,25.10
2022-08-31T15:55:00.210Z,24.80
2022-08-31T15:58:04.270Z,25.30
2022-08-31T16:00:34.323Z,25.70
2022-08-31T16:04:40.929Z,25.90
2022-08-31T16:07:11.669Z,25.90
2022-08-31T16:09:44.706Z,25.90
2022-08-31T16:12:14.560Z,25.90
2022-08-31T16:15:15.844Z,25.70
2022-08-31T16:17:44.188Z,24.60
2022-08-31T16:20:14.363Z,24.90
2022-08-31T16:22:43.497Z,24.90
2022-08-31T16:25:14.396Z,24.80
2022-08-31T16:27:43.466Z,24.40
2022-08-31T16:30:13.622Z,24.40
2022-08-31T16:32:41.669Z,24.30
2022-08-31T16:35:10.227Z,24.10
2022-08-31T16:37:38.492Z,23.90
2022-08-31T16:40:19.014Z,23.90
2022-08-31T16:42:54.502Z,23.80
2022-08-31T16:45:26.189Z,23.70
2022-08-31T16:48:14.136Z,23.60
2022-08-31T16:50:50.660Z,23.50
2022-08-31T16:53:19.883Z,23.30
2022-08-31T16:55:48.868Z,23.20
2022-08-31T16:58:50.100Z,23.10
2022-08-31T17:01:26.552Z,23.10
2022-08-31T17:03:57.726Z,22.80
2022-08-31T17:06:29.401Z,22.80
2022-08-31T17:09:04.501Z,22.70
2022-08-31T17:11:48.199Z,22.40
2022-08-31T17:14:21.023Z,22.40
2022-08-31T17:16:53.109Z,22.50
2022-08-31T17:19:22.268Z,22.40
2022-08-31T17:21:51.074Z,22.10
2022-08-31T17:24:24.900Z,22.20
2022-08-31T17:26:59.656Z,22.00
2022-08-31T17:29:43.743Z,22.00
2022-08-31T17:32:26.205Z,21.90
2022-08-31T17:34:55.430Z,21.70
2022-08-31T17:37:32.879Z,21.70
2022-08-31T17:40:01.006Z,21.50
2022-08-31T17:42:30.735Z,21.50
2022-08-31T17:44:58.950Z,21.40
2022-08-31T17:47:27.039Z,21.50
2022-08-31T17:50:02.320Z,21.30
2022-08-31T17:52:35.301Z,21.20
2022-08-31T17:55:11.345Z,21.00
2022-08-31T17:57:44.534Z,21.00
2022-08-31T18:00:50.226Z,20.70
2022-08-31T18:03:18.214Z,20.60
2022-08-31T18:05:46.810Z,20.50
2022-08-31T18:08:15.740Z,20.50
2022-08-31T18:10:52.460Z,20.40
2022-08-31T18:13:24.301Z,20.30
2022-08-31T18:15:52.645Z,20.30
2022-08-31T18:18:21.113Z,20.20
2022-08-31T18:20:49.766Z,20.10
2022-08-31T18:23:17.827Z,20.10
2022-08-31T18:25:52.422Z,20.00
2022-08-31T18:28:25.806Z,19.90
2022-08-31T18:30:53.913Z,19.80
2022-08-31T18:36:55.403Z,19.80
2022-08-31T18:39:51.549Z,19.70
2022-08-31T18:42:40.192Z,19.50
2022-08-31T18:45:19.419Z,19.40
2022-08-31T18:48:23.757Z,19.40
2022-08-31T18:50:47.614Z,19.30
2022-08-31T18:53:28.836Z,19.20
2022-08-31T18:56:06.142Z,19.10
2022-08-31T18:58:35.881Z,19.00
2022-08-31T19:01:15.840Z,18.90
2022-08-31T19:03:45.813Z,18.80
2022-08-31T19:06:21.719Z,18.70
2022-08-31T19:08:52.657Z,18.50
2022-08-31T19:11:23.581Z,18.50
2022-08-31T19:13:52.813Z,18.40
2022-08-31T19:16:25.418Z,18.30
2022-08-31T19:18:59.154Z,18.30
2022-08-31T19:21:34.206Z,18.20
2022-08-31T19:24:10.701Z,18.10
2022-08-31T19:26:52.004Z,18.10
2022-08-31T19:29:24.501Z,18.10
2022-08-31T19:31:55.066Z,18.10
2022-08-31T19:34:35.227Z,18.00
2022-08-31T19:37:10.651Z,18.00
2022-08-31T19:39:44.454Z,17.90
2022-08-31T19:45:49.827Z,17.70
2022-08-31T19:48:32.340Z,17.50
2022-08-31T19:51:08.571Z,17.40
2022-08-31T19:53:40.429Z,17.20
2022-08-31T19:56:24.163Z,17.20
2022-08-31T19:58:55.577Z,16.90
2022-08-31T20:01:34.742Z,16.90
2022-08-31T20:04:40.409Z,16.80
2022-08-31T20:07:09.540Z,16.90
2022-08-31T20:09:38.606Z,16.70
2022-08-31T20:12:10.787Z,16.60
2022-08-31T20:14:39.971Z,16.60
2022-08-31T20:17:41.700Z,16.70
2022-08-31T20:20:12.965Z,16.40
2022-08-31T20:22:48.525Z,16.50
2022-08-31T20:25:19.120Z,16.00
2022-08-31T20:27:50.456Z,16.10
2022-08-31T20:30:23.696Z,15.80
2022-08-31T20:32:53.578Z,15.80
2022-08-31T20:35:33.401Z,15.70
2022-08-31T20:38:06.499Z,15.50
2022-08-31T20:40:39.317Z,15.40
2022-08-31T20:43:13.957Z,15.10
2022-08-31T20:45:44.203Z,15.30
2022-08-31T20:49:23.532Z,15.10
2022-08-31T20:51:55.454Z,15.10
2022-08-31T20:54:26.382Z,14.90
2022-08-31T21:02:21.923Z,14.80
2022-08-31T21:04:51.052Z,14.90
2022-08-31T21:07:25.867Z,14.80
2022-08-31T21:10:36.242Z,14.60
2022-08-31T21:13:11.387Z,14.60
2022-08-31T21:15:45.500Z,14.60
2022-08-31T21:18:23.524Z,14.60
2022-08-31T21:20:52.985Z,14.60
2022-08-31T21:23:21.726Z,14.40
2022-08-31T21:25:57.895Z,14.30
2022-08-31T21:28:31.341Z,14.20
2022-08-31T21:31:18.370Z,14.20
2022-08-31T21:34:25.980Z,14.10
2022-08-31T21:36:55.478Z,14.10
2022-08-31T21:39:29.162Z,14.00
2022-08-31T21:42:02.081Z,13.90
2022-08-31T21:44:31.182Z,13.90
2022-08-31T21:46:59.979Z,13.80
2022-08-31T21:50:01.137Z,13.90
2022-08-31T21:52:30.402Z,14.00
2022-08-31T21:55:05.651Z,14.00
2022-08-31T21:57:36.090Z,14.00
2022-08-31T22:00:26.700Z,13.70
2022-08-31T22:03:17.142Z,13.70
2022-08-31T22:05:45.727Z,13.60
2022-08-31T22:08:18.171Z,13.50
2022-08-31T22:10:49.170Z,13.60
2022-08-31T22:14:03.814Z,13.50
2022-08-31T22:16:37.695Z,13.50
2022-08-31T22:19:29.555Z,13.40
2022-08-31T22:22:01.408Z,13.50
2022-08-31T22:25:03.407Z,13.40
2022-08-31T22:28:06.794Z,13.30
2022-08-31T22:35:42.504Z,13.10
2022-08-31T22:46:59.716Z,12.90
2022-08-31T22:49:29.539Z,12.90
2022-08-31T22:52:00.125Z,13.00
2022-08-31T22:54:36.520Z,12.90
2022-08-31T23:09:28.020Z,12.90
2022-08-31T23:12:06.203Z,12.80
2022-08-31T23:14:38.946Z,12.80
2022-08-31T23:17:11.245Z,12.70
2022-08-31T23:24:59.976Z,12.50
2022-08-31T23:27:33.357Z,12.50
2022-08-31T23:30:10.009Z,12.40
2022-08-31T23:38:02.255Z,12.60
2022-08-31T23:45:48.617Z,12.40
2022-08-31T23:48:23.471Z,12.50
2022-08-31T23:50:52.415Z,12.50
2022-08-31T23:53:23.144Z,12.50
2022-08-31T23:56:16.121Z,12.50
2022-08-31T23:58:48.726Z,12.50
